Portada
METAR-TAF:

METAR-TAF

Aeroports :

RAF

Holbeach, Anglaterra

latitud: 52-52N, longitud: 000-09E, altitud: 3 m

Observació

L'informe es va fer fa 1 hora i 6 minuts, a les 08:50 UTC
Vent 17 kt del Sud-Oest
Temperatura 19°C
Humitat 68%
Pressió 1022 hPa
Visibilitat 10 km o més
sense núvols per sota de 1500 mi sense presència de cumulonimbus.

METAR: EGYH 220850Z 23017KT CAVOK 19/13 Q1022 RMK BLU

Hora: 10:56 (09:56 UTC)


TAF: manca

Observacions i pronòstics meteorològics de més de 4000 aeroports (METAR i TAF).

Les estacions disponibles són els punts grocs i vermells al mapa.

Posi el ratolí al punt desitjat per veure el nom de l'estació.

Feu clic per veure les observacions i els pronòstics meteorològics.

Per canviar el mapa: feu clic els botons verds amb una creu de color negre per apropar; al botó verd amb un guió per allunyar la imatge; o en les fletxes verdes per a mapes adjacents.


METAR-TAF: